createdAt,value
2023-01-09T00:02:13.395Z,3.05
2023-01-09T00:07:20.236Z,3.06
2023-01-09T00:12:28.096Z,3.08
2023-01-09T00:17:34.648Z,3.10
2023-01-09T00:22:41.212Z,3.08
2023-01-09T00:27:49.317Z,3.09
2023-01-09T00:32:56.712Z,3.11
2023-01-09T00:38:04.964Z,3.12
2023-01-09T00:43:12.848Z,3.14
2023-01-09T00:48:26.981Z,3.12
2023-01-09T00:53:37.836Z,3.13
2023-01-09T00:58:46.247Z,3.15
2023-01-09T01:03:53.059Z,3.11
2023-01-09T01:08:59.593Z,3.09
2023-01-09T01:14:07.528Z,3.07
2023-01-09T01:19:14.043Z,3.08
2023-01-09T01:24:20.847Z,3.08
2023-01-09T01:29:31.314Z,3.07
2023-01-09T01:34:37.762Z,3.08
2023-01-09T01:39:45.273Z,3.11
2023-01-09T01:45:11.418Z,3.12
2023-01-09T01:50:33.942Z,3.12
2023-01-09T01:55:45.502Z,3.12
2023-01-09T02:00:53.771Z,3.14
2023-01-09T02:06:00.756Z,3.12
2023-01-09T02:11:09.335Z,3.12
2023-01-09T02:16:37.078Z,3.12
2023-01-09T02:21:53.413Z,3.07
2023-01-09T02:27:37.955Z,3.07
2023-01-09T02:33:01.271Z,3.06
2023-01-09T02:38:19.604Z,3.05
2023-01-09T02:43:29.509Z,3.10
2023-01-09T02:48:37.569Z,3.09
2023-01-09T02:54:21.597Z,3.09
2023-01-09T02:59:34.483Z,3.09
2023-01-09T03:04:55.767Z,3.08
2023-01-09T03:10:08.410Z,3.12
2023-01-09T03:15:17.633Z,3.06
2023-01-09T03:20:29.149Z,3.06
2023-01-09T03:25:36.341Z,3.07
2023-01-09T03:30:42.811Z,3.07
2023-01-09T03:35:50.992Z,3.05
2023-01-09T03:40:57.661Z,3.01
2023-01-09T03:46:05.012Z,3.05
2023-01-09T03:51:14.007Z,3.06
2023-01-09T03:56:20.292Z,3.03
2023-01-09T04:01:26.909Z,3.03
2023-01-09T04:06:34.750Z,3.01
2023-01-09T04:11:41.284Z,3.06
2023-01-09T04:16:48.345Z,3.01
2023-01-09T04:21:56.353Z,3.05
2023-01-09T04:27:02.900Z,3.10
2023-01-09T04:32:09.219Z,3.09
2023-01-09T04:37:17.174Z,3.10
2023-01-09T04:42:24.882Z,3.16
2023-01-09T04:47:33.052Z,3.20
2023-01-09T04:52:41.763Z,3.21
2023-01-09T04:57:48.286Z,3.19
2023-01-09T05:02:54.738Z,3.21
2023-01-09T05:08:03.066Z,3.22
2023-01-09T05:13:10.569Z,3.23
2023-01-09T05:18:17.312Z,3.25
2023-01-09T05:23:24.988Z,3.25
2023-01-09T05:28:31.482Z,3.28
2023-01-09T05:33:37.814Z,3.25
2023-01-09T05:38:45.990Z,3.28
2023-01-09T05:43:52.381Z,3.31
2023-01-09T05:48:58.826Z,3.31
2023-01-09T05:54:07.855Z,3.27
2023-01-09T05:59:14.002Z,3.25
2023-01-09T06:04:20.437Z,3.18
2023-01-09T06:09:28.868Z,3.15
2023-01-09T06:14:35.375Z,3.16
2023-01-09T06:19:42.201Z,3.12
2023-01-09T06:24:51.036Z,3.15
2023-01-09T06:29:58.650Z,3.13
2023-01-09T06:35:08.316Z,3.15
2023-01-09T06:40:16.894Z,3.10
2023-01-09T06:45:23.723Z,3.09
2023-01-09T06:50:30.848Z,3.10
2023-01-09T06:55:38.747Z,3.08
2023-01-09T07:00:45.224Z,3.02
2023-01-09T07:05:52.391Z,2.99
2023-01-09T07:11:00.627Z,3.01
2023-01-09T07:16:09.113Z,3.01
2023-01-09T07:21:15.946Z,3.01
2023-01-09T07:26:24.469Z,3.02
2023-01-09T07:31:31.129Z,3.05
2023-01-09T07:36:37.449Z,3.07
2023-01-09T07:41:46.470Z,3.12
2023-01-09T07:46:54.803Z,3.17
2023-01-09T07:52:01.656Z,3.21
2023-01-09T07:57:11.557Z,3.28
2023-01-09T08:02:18.497Z,3.36
2023-01-09T08:07:25.219Z,3.41
2023-01-09T08:12:33.178Z,3.46
2023-01-09T08:17:39.697Z,3.49
2023-01-09T08:22:50.469Z,3.57
2023-01-09T08:27:58.935Z,3.62
2023-01-09T08:33:06.289Z,3.70
2023-01-09T08:38:13.276Z,3.78
2023-01-09T08:43:38.799Z,3.81
2023-01-09T08:48:45.939Z,3.88
2023-01-09T08:53:52.553Z,3.93
2023-01-09T08:59:00.582Z,4.00
2023-01-09T09:04:07.603Z,4.07
2023-01-09T09:09:14.157Z,4.12
2023-01-09T09:14:39.551Z,4.24
2023-01-09T09:19:46.092Z,4.27
2023-01-09T09:24:52.484Z,4.39
2023-01-09T09:30:00.391Z,4.42
2023-01-09T09:35:07.741Z,4.48
2023-01-09T09:40:22.303Z,4.46
2023-01-09T09:45:45.266Z,4.55
2023-01-09T09:51:25.890Z,4.55
2023-01-09T09:56:39.702Z,4.57
2023-01-09T10:01:55.566Z,4.55
2023-01-09T10:07:09.659Z,4.54
2023-01-09T10:12:28.858Z,4.55
2023-01-09T10:18:00.925Z,4.55
2023-01-09T10:23:31.189Z,4.59
2023-01-09T10:29:06.072Z,4.59
2023-01-09T10:34:31.446Z,4.56
2023-01-09T10:39:45.430Z,4.55
2023-01-09T10:44:59.171Z,4.54
2023-01-09T10:50:22.854Z,4.53
2023-01-09T10:55:40.035Z,4.55
2023-01-09T11:00:50.006Z,4.53
2023-01-09T11:05:59.885Z,4.48
2023-01-09T11:11:06.851Z,4.49
2023-01-09T11:16:22.875Z,4.49
2023-01-09T11:21:36.469Z,4.47
2023-01-09T11:26:42.934Z,4.47
2023-01-09T11:31:56.138Z,4.51
2023-01-09T11:37:11.710Z,4.53
2023-01-09T11:42:44.485Z,4.53
2023-01-09T11:47:51.488Z,4.56
2023-01-09T11:53:19.308Z,4.59
2023-01-09T11:58:35.521Z,4.60
2023-01-09T12:04:18.928Z,4.65
2023-01-09T12:09:38.883Z,4.65
2023-01-09T12:15:01.945Z,4.67
2023-01-09T12:20:34.670Z,4.67
2023-01-09T12:25:55.749Z,4.67
2023-01-09T12:31:19.583Z,4.71
2023-01-09T12:36:44.374Z,4.74
2023-01-09T12:42:16.497Z,4.74
2023-01-09T12:47:47.254Z,4.76
2023-01-09T12:53:07.852Z,4.79
2023-01-09T12:58:31.266Z,4.81
2023-01-09T13:03:43.665Z,4.85
2023-01-09T13:08:55.067Z,4.88
2023-01-09T13:14:07.137Z,4.89
2023-01-09T13:19:20.070Z,4.91
2023-01-09T13:24:36.112Z,4.94
2023-01-09T13:29:48.146Z,4.94
2023-01-09T13:34:57.971Z,4.94
2023-01-09T13:40:08.001Z,4.96
2023-01-09T13:45:25.894Z,5.00
2023-01-09T13:50:32.784Z,5.03
2023-01-09T13:55:39.477Z,5.05
2023-01-09T14:01:00.303Z,5.07
2023-01-09T14:06:21.877Z,5.07
2023-01-09T14:11:29.454Z,5.09
2023-01-09T14:16:39.725Z,5.09
2023-01-09T14:21:55.010Z,5.09
2023-01-09T14:27:03.450Z,5.13
2023-01-09T14:32:57.846Z,5.13
2023-01-09T14:50:51.557Z,5.40
2023-01-09T14:56:06.090Z,5.33
2023-01-09T15:01:23.162Z,5.31
2023-01-09T15:06:37.438Z,5.32
2023-01-09T15:11:44.431Z,5.34
2023-01-09T15:16:51.396Z,5.29
2023-01-09T15:22:05.451Z,5.32
2023-01-09T15:27:19.504Z,5.35
2023-01-09T15:32:33.878Z,5.37
2023-01-09T15:37:42.221Z,5.34
2023-01-09T15:43:00.300Z,5.33
2023-01-09T15:48:27.319Z,5.36
2023-01-09T15:53:36.079Z,5.40
2023-01-09T15:58:47.656Z,5.41
2023-01-09T16:03:56.110Z,5.45
2023-01-09T16:09:06.014Z,5.53
2023-01-09T16:14:20.730Z,5.50
2023-01-09T16:19:47.041Z,5.48
2023-01-09T16:24:57.928Z,5.45
2023-01-09T16:30:07.442Z,5.51
2023-01-09T16:35:18.439Z,5.55
2023-01-09T16:40:30.216Z,5.56
2023-01-09T16:45:39.467Z,5.59
2023-01-09T16:50:47.415Z,5.60
2023-01-09T16:55:56.488Z,5.62
2023-01-09T17:01:02.804Z,5.61
2023-01-09T17:06:12.632Z,5.59
2023-01-09T17:11:25.102Z,5.65
2023-01-09T17:16:33.010Z,5.71
2023-01-09T17:21:39.949Z,5.78
2023-01-09T17:27:09.820Z,5.82
2023-01-09T17:32:17.671Z,5.80
2023-01-09T17:37:24.666Z,5.85
2023-01-09T17:42:33.176Z,5.90
2023-01-09T17:47:39.663Z,5.85
2023-01-09T17:52:47.863Z,5.85
2023-01-09T17:57:56.083Z,5.85
2023-01-09T18:03:03.440Z,5.84
2023-01-09T18:08:14.516Z,5.84
2023-01-09T18:13:23.383Z,5.81
2023-01-09T18:18:30.055Z,5.80
2023-01-09T18:23:38.061Z,5.80
2023-01-09T18:28:47.155Z,5.78
2023-01-09T18:33:54.583Z,5.78
2023-01-09T18:39:04.015Z,5.81
2023-01-09T18:44:13.402Z,5.81
2023-01-09T18:49:20.332Z,5.78
2023-01-09T18:54:31.717Z,5.78
2023-01-09T18:59:41.424Z,5.74
2023-01-09T19:04:49.204Z,5.76
2023-01-09T19:09:58.518Z,5.73
2023-01-09T19:15:11.826Z,5.69
2023-01-09T19:20:20.070Z,5.71
2023-01-09T19:25:27.181Z,5.70
2023-01-09T19:30:37.044Z,5.68
2023-01-09T19:35:46.305Z,5.69
2023-01-09T19:40:54.195Z,5.68
2023-01-09T19:46:03.777Z,5.67
2023-01-09T19:51:11.275Z,5.64
2023-01-09T19:56:21.238Z,5.65
2023-01-09T20:01:32.709Z,5.63
2023-01-09T20:06:45.084Z,5.64
2023-01-09T20:11:52.946Z,5.62
2023-01-09T20:17:04.644Z,5.58
2023-01-09T20:22:12.434Z,5.60
2023-01-09T20:27:19.819Z,5.63
2023-01-09T20:32:30.286Z,5.63
2023-01-09T20:37:40.632Z,5.62
2023-01-09T20:42:47.913Z,5.62
2023-01-09T20:47:57.076Z,5.60
2023-01-09T20:53:05.060Z,5.57
2023-01-09T20:58:13.147Z,5.57
2023-01-09T21:03:21.884Z,5.59
2023-01-09T21:08:28.470Z,5.58
2023-01-09T21:13:35.292Z,5.58
2023-01-09T21:18:45.857Z,5.57
2023-01-09T21:23:54.720Z,5.55
2023-01-09T21:29:08.585Z,5.55
2023-01-09T21:34:20.309Z,5.53
2023-01-09T21:39:27.232Z,5.53
2023-01-09T21:44:51.241Z,5.51
2023-01-09T21:49:59.154Z,5.52
2023-01-09T21:55:06.153Z,5.51
2023-01-09T22:00:15.171Z,5.50
2023-01-09T22:05:24.953Z,5.50
2023-01-09T22:10:32.711Z,5.48
2023-01-09T22:15:39.724Z,5.47
2023-01-09T22:20:48.870Z,5.45
2023-01-09T22:25:55.051Z,5.44
2023-01-09T22:31:01.478Z,5.44
2023-01-09T22:36:31.627Z,5.45
2023-01-09T22:41:38.576Z,5.45
2023-01-09T22:46:45.013Z,5.45
2023-01-09T22:51:52.806Z,5.47
2023-01-09T22:56:59.287Z,5.43
2023-01-09T23:02:07.203Z,5.43
2023-01-09T23:07:15.239Z,5.44
2023-01-09T23:12:22.011Z,5.43
2023-01-09T23:17:28.526Z,5.45
2023-01-09T23:22:36.593Z,5.45
2023-01-09T23:27:43.616Z,5.44
2023-01-09T23:32:50.008Z,5.44
2023-01-09T23:37:58.080Z,5.44
2023-01-09T23:43:10.719Z,5.44
2023-01-09T23:48:19.219Z,5.42
2023-01-09T23:53:27.305Z,5.40
2023-01-09T23:58:34.689Z,5.39
